Time;durP1;ratioP1;P1;durP2;ratioP2;P2;SDS_P1;SDS_P2;PMS_P1;PMS_P2;Temp;Humidity;BMP_temperature;BMP_pressure;BME280_temperature;BME280_humidity;BME280_pressure;Samples;Min_cycle;Max_cycle;Signal;HPM_P1;HPM_P2
2022/07/21 00:01:10;;;;;;;;;;;22.70;90.80;;;;;;5063568;28;19928;-74
2022/07/21 00:03:36;;;;;;;;;;;22.70;91.10;;;;;;5050635;28;19920;-74
2022/07/21 00:06:01;;;;;;;;;;;22.70;91.40;;;;;;5063221;28;19932;-74
2022/07/21 00:08:27;;;;;;;;;;;22.70;91.50;;;;;;5060411;28;19925;-74
2022/07/21 00:10:53;;;;;;;;;;;22.70;91.60;;;;;;5066205;28;20293;-74
2022/07/21 00:13:18;;;;;;;;;;;22.70;91.80;;;;;;5060872;28;19931;-74
2022/07/21 00:15:44;;;;;;;;;;;22.70;92.10;;;;;;5065622;28;20437;-74
2022/07/21 00:18:09;;;;;;;;;;;22.80;92.20;;;;;;5048736;28;20007;-74
2022/07/21 00:20:35;;;;;;;;;;;22.80;92.20;;;;;;5066436;28;20326;-74
2022/07/21 00:23:00;;;;;;;;;;;22.80;92.50;;;;;;5059754;28;20310;-74
2022/07/21 00:25:26;;;;;;;;;;;22.80;92.30;;;;;;5050281;28;19931;-74
2022/07/21 00:27:52;;;;;;;;;;;22.80;92.70;;;;;;5049932;28;19921;-74
2022/07/21 00:30:18;;;;;;;;;;;22.70;92.60;;;;;;5049983;28;19929;-74
2022/07/21 00:32:43;;;;;;;;;;;22.70;92.70;;;;;;5050052;28;19921;-74
2022/07/21 00:35:10;;;;;;;;;;;22.70;92.80;;;;;;5050562;28;19921;-74
2022/07/21 00:37:35;;;;;;;;;;;22.70;92.60;;;;;;5049265;28;19924;-74
2022/07/21 00:40:01;;;;;;;;;;;22.60;93.00;;;;;;5050467;28;19975;-74
2022/07/21 00:42:28;;;;;;;;;;;22.60;92.90;;;;;;5050301;28;19931;-74
2022/07/21 00:44:54;;;;;;;;;;;22.50;93.40;;;;;;5049809;28;19921;-74
2022/07/21 00:47:23;;;;;;;;;;;22.50;93.70;;;;;;5050059;28;20290;-74
2022/07/21 00:49:49;;;;;;;;;;;22.50;93.90;;;;;;5048181;28;20370;-73
2022/07/21 00:52:15;;;;;;;;;;;22.50;93.90;;;;;;5049455;28;19934;-74
2022/07/21 00:54:41;;;;;;;;;;;22.50;94.20;;;;;;5049690;28;19921;-74
2022/07/21 00:57:07;;;;;;;;;;;22.50;94.40;;;;;;5060144;28;19920;-74
2022/07/21 00:59:32;;;;;;;;;;;22.50;94.50;;;;;;5052105;28;20007;-73
2022/07/21 01:01:58;;;;;;;;;;;22.50;94.80;;;;;;5049494;28;19927;-74
2022/07/21 01:04:23;;;;;;;;;;;22.50;95.00;;;;;;5050192;28;19920;-74
2022/07/21 01:06:49;;;;;;;;;;;22.50;95.20;;;;;;5049181;28;20019;-74
2022/07/21 01:09:15;;;;;;;;;;;22.40;95.40;;;;;;5049624;28;19920;-74
2022/07/21 01:11:40;;;;;;;;;;;22.50;96.00;;;;;;5049593;28;19921;-74
2022/07/21 01:14:06;;;;;;;;;;;22.30;96.50;;;;;;5049097;28;19927;-74
2022/07/21 01:16:32;;;;;;;;;;;22.20;97.80;;;;;;5060323;28;19966;-75
2022/07/21 01:18:57;;;;;;;;;;;22.20;98.70;;;;;;5072897;28;19928;-74
2022/07/21 01:21:36;;;;;;;;;;;22.10;99.80;;;;;;5073137;28;19920;-74
2022/07/21 01:24:03;;;;;;;;;;;21.90;99.90;;;;;;5053058;28;19925;-74
2022/07/21 01:26:29;;;;;;;;;;;21.70;99.90;;;;;;5053357;28;19936;-74
2022/07/21 01:28:55;;;;;;;;;;;21.30;99.90;;;;;;5053401;28;20398;-74
2022/07/21 01:31:20;;;;;;;;;;;21.10;99.90;;;;;;5053189;28;19921;-74
2022/07/21 01:33:46;;;;;;;;;;;20.90;99.90;;;;;;5071607;28;19928;-74
2022/07/21 01:36:12;;;;;;;;;;;20.80;99.90;;;;;;5061414;28;19924;-74
2022/07/21 01:41:31;;;;;;;;;;;20.50;99.90;;;;;;5053678;28;20294;-74
2022/07/21 01:43:57;;;;;;;;;;;20.50;99.90;;;;;;5053515;28;19920;-74
2022/07/21 01:46:23;;;;;;;;;;;20.60;99.90;;;;;;5066371;28;20057;-74
2022/07/21 01:48:49;;;;;;;;;;;20.60;99.90;;;;;;5052663;28;20051;-74
2022/07/21 01:51:14;;;;;;;;;;;20.60;99.90;;;;;;5066291;28;19979;-74
2022/07/21 01:53:40;;;;;;;;;;;20.60;99.90;;;;;;5053217;28;19920;-74
2022/07/21 01:56:06;;;;;;;;;;;20.50;99.90;;;;;;5052524;28;19932;-74
2022/07/21 01:58:32;;;;;;;;;;;20.50;99.90;;;;;;5061369;28;19994;-74
2022/07/21 02:00:57;;;;;;;;;;;20.50;99.90;;;;;;5057263;28;20394;-74
2022/07/21 02:03:23;;;;;;;;;;;20.40;99.90;;;;;;5051812;28;20004;-74
2022/07/21 02:05:49;;;;;;;;;;;20.40;99.90;;;;;;5052913;28;19928;-73
2022/07/21 02:08:14;;;;;;;;;;;20.40;99.90;;;;;;5052842;28;19925;-74
2022/07/21 02:10:40;;;;;;;;;;;20.40;99.90;;;;;;5065548;28;19959;-74
2022/07/21 02:13:05;;;;;;;;;;;20.40;99.90;;;;;;5061580;28;20294;-74
2022/07/21 02:15:31;;;;;;;;;;;20.40;99.90;;;;;;5058454;28;19971;-74
2022/07/21 02:17:57;;;;;;;;;;;20.50;99.90;;;;;;5072124;28;20456;-74
2022/07/21 02:20:23;;;;;;;;;;;20.40;99.90;;;;;;5069561;28;19921;-74
2022/07/21 02:22:49;;;;;;;;;;;20.40;99.90;;;;;;5052504;28;19921;-74
2022/07/21 02:25:15;;;;;;;;;;;20.40;99.90;;;;;;5065453;28;19943;-73
2022/07/21 02:27:44;;;;;;;;;;;20.30;99.90;;;;;;5060383;28;20295;-74
2022/07/21 02:30:11;;;;;;;;;;;20.30;99.90;;;;;;5056574;28;20290;-74
2022/07/21 02:32:36;;;;;;;;;;;20.30;99.90;;;;;;5052533;28;19924;-74
2022/07/21 02:35:02;;;;;;;;;;;20.30;99.90;;;;;;5051875;28;19955;-74
2022/07/21 02:37:28;;;;;;;;;;;20.30;99.90;;;;;;5052152;28;20018;-74
2022/07/21 02:39:53;;;;;;;;;;;20.30;99.90;;;;;;5067380;28;19950;-74
2022/07/21 02:42:19;;;;;;;;;;;20.20;99.90;;;;;;5071611;28;19921;-74
2022/07/21 02:44:44;;;;;;;;;;;20.20;99.90;;;;;;5057432;28;19959;-74
2022/07/21 02:47:10;;;;;;;;;;;20.20;99.90;;;;;;5071207;28;20279;-74
2022/07/21 02:49:35;;;;;;;;;;;20.20;99.90;;;;;;5057627;28;19921;-75
2022/07/21 02:52:01;;;;;;;;;;;20.20;99.90;;;;;;5071089;28;19928;-74
2022/07/21 02:54:26;;;;;;;;;;;20.20;99.90;;;;;;5068111;28;19924;-74
2022/07/21 02:56:52;;;;;;;;;;;20.20;99.90;;;;;;5051658;28;19925;-74
2022/07/21 02:59:17;;;;;;;;;;;20.20;99.90;;;;;;5048890;28;19929;-75
2022/07/21 03:01:43;;;;;;;;;;;20.10;99.90;;;;;;5051508;28;20430;-74
2022/07/21 03:04:09;;;;;;;;;;;20.20;99.90;;;;;;5051990;28;19947;-74
2022/07/21 03:06:34;;;;;;;;;;;20.20;99.90;;;;;;5050242;28;19932;-74
2022/07/21 03:09:00;;;;;;;;;;;20.20;99.90;;;;;;5051953;28;20023;-74
2022/07/21 03:11:25;;;;;;;;;;;20.10;99.90;;;;;;5051864;28;19928;-74
2022/07/21 03:13:51;;;;;;;;;;;20.10;99.90;;;;;;5051911;28;19948;-74
2022/07/21 03:16:16;;;;;;;;;;;20.10;99.90;;;;;;5050559;28;20307;-74
2022/07/21 03:18:42;;;;;;;;;;;20.00;99.90;;;;;;5051371;28;19920;-74
2022/07/21 03:21:08;;;;;;;;;;;19.90;99.90;;;;;;5053655;28;20298;-74
2022/07/21 03:23:33;;;;;;;;;;;19.80;99.90;;;;;;5062579;28;19983;-74
2022/07/21 03:25:59;;;;;;;;;;;19.80;99.90;;;;;;5063736;28;20595;-74
2022/07/21 03:28:24;;;;;;;;;;;19.80;99.90;;;;;;5051385;28;19920;-75
2022/07/21 03:30:50;;;;;;;;;;;19.80;99.90;;;;;;5064009;28;19921;-74
2022/07/21 03:33:15;;;;;;;;;;;19.90;99.90;;;;;;5051262;28;19925;-74
2022/07/21 03:35:41;;;;;;;;;;;19.80;99.90;;;;;;5050671;28;19924;-74
2022/07/21 03:38:07;;;;;;;;;;;19.90;99.90;;;;;;5063900;28;19962;-74
2022/07/21 03:40:34;;;;;;;;;;;19.80;99.90;;;;;;5050501;28;20355;-74
2022/07/21 03:43:01;;;;;;;;;;;19.90;99.90;;;;;;5051173;28;19921;-74
2022/07/21 03:45:29;;;;;;;;;;;19.90;99.90;;;;;;5050907;28;20013;-74
2022/07/21 03:47:55;;;;;;;;;;;19.90;99.90;;;;;;5052479;28;19920;-74
2022/07/21 03:50:21;;;;;;;;;;;19.90;99.90;;;;;;5070330;28;19924;-74
2022/07/21 03:52:46;;;;;;;;;;;19.90;99.90;;;;;;5055481;28;20419;-74
2022/07/21 03:55:17;;;;;;;;;;;19.90;99.90;;;;;;5050791;28;19966;-74
2022/07/21 03:57:52;;;;;;;;;;;19.90;99.90;;;;;;5052390;28;19921;-75
2022/07/21 04:00:19;;;;;;;;;;;19.90;99.90;;;;;;5060212;28;19920;-74
2022/07/21 04:02:45;;;;;;;;;;;19.90;99.90;;;;;;5054423;28;20294;-74
2022/07/21 04:05:12;;;;;;;;;;;19.90;99.90;;;;;;5059941;28;19927;-74
2022/07/21 04:07:41;;;;;;;;;;;19.90;99.90;;;;;;5050829;28;20011;-74
2022/07/21 04:10:08;;;;;;;;;;;19.90;99.90;;;;;;5050680;28;19927;-74
2022/07/21 04:12:33;;;;;;;;;;;19.90;99.90;;;;;;5050199;28;19939;-75
2022/07/21 04:14:59;;;;;;;;;;;19.90;99.90;;;;;;5050798;28;19925;-74
2022/07/21 04:17:24;;;;;;;;;;;19.90;99.90;;;;;;5050285;28;19921;-74
2022/07/21 04:19:50;;;;;;;;;;;19.90;99.90;;;;;;5050581;28;19935;-75
2022/07/21 04:22:16;;;;;;;;;;;19.90;99.90;;;;;;5066087;28;19940;-74
2022/07/21 04:24:41;;;;;;;;;;;20.00;99.90;;;;;;5059815;28;19983;-75
2022/07/21 04:27:07;;;;;;;;;;;20.00;99.90;;;;;;5049750;28;20290;-74
2022/07/21 04:29:32;;;;;;;;;;;20.00;99.90;;;;;;5059832;28;20549;-74
2022/07/21 04:31:58;;;;;;;;;;;20.00;99.90;;;;;;5053266;28;20003;-74
2022/07/21 04:34:24;;;;;;;;;;;20.00;99.90;;;;;;5050040;28;20594;-74
2022/07/21 04:36:49;;;;;;;;;;;20.00;99.90;;;;;;5062162;28;19927;-74
2022/07/21 04:39:15;;;;;;;;;;;20.00;99.90;;;;;;5049525;28;19928;-74
2022/07/21 04:41:40;;;;;;;;;;;20.00;99.90;;;;;;5051952;28;20308;-74
2022/07/21 04:44:06;;;;;;;;;;;20.00;99.90;;;;;;5059102;28;20041;-74
2022/07/21 04:46:31;;;;;;;;;;;20.00;99.90;;;;;;5048960;28;19924;-74
2022/07/21 04:48:57;;;;;;;;;;;20.10;99.90;;;;;;5048765;28;19928;-74
2022/07/21 04:51:22;;;;;;;;;;;20.00;99.90;;;;;;5064296;28;19927;-74
2022/07/21 04:53:48;;;;;;;;;;;20.10;99.90;;;;;;5059268;28;19920;-74
2022/07/21 04:56:13;;;;;;;;;;;20.00;99.90;;;;;;5050211;28;19943;-74
2022/07/21 04:58:39;;;;;;;;;;;20.00;99.90;;;;;;5059071;28;20502;-74
2022/07/21 05:01:04;;;;;;;;;;;20.00;99.90;;;;;;5062190;28;19927;-74
2022/07/21 05:03:30;;;;;;;;;;;20.00;99.90;;;;;;5048667;28;20362;-74
2022/07/21 05:05:55;;;;;;;;;;;20.10;99.90;;;;;;5048636;28;20058;-74
2022/07/21 05:08:21;;;;;;;;;;;20.10;99.90;;;;;;5048837;28;19973;-74
2022/07/21 05:10:46;;;;;;;;;;;20.10;99.90;;;;;;5049230;28;20275;-74
2022/07/21 05:13:12;;;;;;;;;;;20.10;99.90;;;;;;5049756;28;20329;-74
2022/07/21 05:15:37;;;;;;;;;;;20.10;99.90;;;;;;5048307;28;20418;-73
2022/07/21 05:18:03;;;;;;;;;;;20.20;99.90;;;;;;5049759;28;19946;-73
2022/07/21 05:20:28;;;;;;;;;;;20.10;99.90;;;;;;5050497;28;19928;-73
2022/07/21 05:22:54;;;;;;;;;;;20.10;99.90;;;;;;5049538;28;19921;-73
2022/07/21 05:25:19;;;;;;;;;;;20.10;99.90;;;;;;5050063;28;19921;-73
2022/07/21 05:27:45;;;;;;;;;;;20.10;99.90;;;;;;5049998;28;19928;-73
2022/07/21 05:30:11;;;;;;;;;;;20.10;99.90;;;;;;5048331;28;19927;-73
2022/07/21 05:32:36;;;;;;;;;;;20.10;99.90;;;;;;5049923;28;19932;-73
2022/07/21 05:35:08;;;;;;;;;;;20.10;99.90;;;;;;5049466;28;19977;-72
2022/07/21 05:37:33;;;;;;;;;;;20.10;99.90;;;;;;5048056;28;20275;-73
2022/07/21 05:40:00;;;;;;;;;;;20.10;99.90;;;;;;5048902;28;19937;-72
2022/07/21 05:42:25;;;;;;;;;;;20.10;99.90;;;;;;5050002;28;20011;-73
2022/07/21 05:44:51;;;;;;;;;;;20.10;99.90;;;;;;5049573;28;20011;-72
2022/07/21 05:47:17;;;;;;;;;;;20.10;99.90;;;;;;5049254;28;20016;-72
2022/07/21 05:49:42;;;;;;;;;;;20.00;99.90;;;;;;5048693;28;20400;-72
2022/07/21 05:52:08;;;;;;;;;;;20.10;99.90;;;;;;5045521;28;19937;-73
2022/07/21 05:54:33;;;;;;;;;;;20.10;99.90;;;;;;5039616;28;20402;-73
2022/07/21 05:56:59;;;;;;;;;;;20.10;99.90;;;;;;5048560;28;19979;-72
2022/07/21 05:59:24;;;;;;;;;;;20.10;99.90;;;;;;5048897;28;19925;-72
2022/07/21 06:01:50;;;;;;;;;;;20.20;99.90;;;;;;5048668;28;20397;-73
2022/07/21 06:04:15;;;;;;;;;;;20.20;99.90;;;;;;5046906;28;19921;-72
2022/07/21 06:06:41;;;;;;;;;;;20.30;99.90;;;;;;5054552;28;20367;-72
2022/07/21 06:09:06;;;;;;;;;;;20.30;99.90;;;;;;5050129;28;19921;-72
2022/07/21 06:11:32;;;;;;;;;;;20.50;99.90;;;;;;5051870;28;19924;-72
2022/07/21 06:13:57;;;;;;;;;;;20.50;99.90;;;;;;5052511;28;19928;-72
2022/07/21 06:16:23;;;;;;;;;;;20.70;99.90;;;;;;5053100;28;19920;-72
2022/07/21 06:18:48;;;;;;;;;;;20.70;99.90;;;;;;5052188;28;19925;-72
2022/07/21 06:21:14;;;;;;;;;;;20.80;99.90;;;;;;5048155;28;19921;-72
2022/07/21 06:23:39;;;;;;;;;;;20.80;99.90;;;;;;5048019;28;19946;-72
2022/07/21 06:26:05;;;;;;;;;;;20.80;99.90;;;;;;5052732;28;19984;-72
2022/07/21 06:28:30;;;;;;;;;;;20.80;99.90;;;;;;5053055;28;20287;-72
2022/07/21 06:30:56;;;;;;;;;;;20.90;99.90;;;;;;5040971;28;19921;-73
2022/07/21 06:33:22;;;;;;;;;;;21.00;99.90;;;;;;5051484;28;19967;-73
2022/07/21 06:35:47;;;;;;;;;;;21.20;99.90;;;;;;5050624;28;20359;-73
2022/07/21 06:38:13;;;;;;;;;;;21.30;99.90;;;;;;5051365;28;20373;-73
2022/07/21 06:40:38;;;;;;;;;;;21.40;99.90;;;;;;5049457;28;19974;-73
2022/07/21 06:43:04;;;;;;;;;;;21.50;99.90;;;;;;5050934;28;20425;-73
2022/07/21 06:45:29;;;;;;;;;;;21.50;99.90;;;;;;5051307;28;19917;-73
2022/07/21 06:48:02;;;;;;;;;;;21.50;99.90;;;;;;5050800;28;20306;-73
2022/07/21 06:50:28;;;;;;;;;;;21.50;99.90;;;;;;5047664;28;20395;-72
2022/07/21 06:52:53;;;;;;;;;;;21.50;99.90;;;;;;5050468;28;19927;-73
2022/07/21 06:55:19;;;;;;;;;;;21.50;99.90;;;;;;5050635;28;19921;-73
2022/07/21 06:57:44;;;;;;;;;;;21.60;99.90;;;;;;5050769;28;19916;-73
2022/07/21 07:00:10;;;;;;;;;;;21.60;99.90;;;;;;5050837;28;19931;-72
2022/07/21 07:02:36;;;;;;;;;;;21.70;99.90;;;;;;5051401;28;20310;-72
2022/07/21 07:05:01;;;;;;;;;;;21.70;99.90;;;;;;5050496;28;20298;-73
2022/07/21 07:07:29;;;;;;;;;;;21.80;99.90;;;;;;5051030;28;19928;-73
2022/07/21 07:09:54;;;;;;;;;;;21.90;99.90;;;;;;5047925;28;19928;-73
2022/07/21 07:12:20;;;;;;;;;;;21.90;99.90;;;;;;5051692;28;19921;-73
2022/07/21 07:14:45;;;;;;;;;;;21.80;99.90;;;;;;5049532;28;20292;-73
2022/07/21 07:17:15;;;;;;;;;;;21.80;99.90;;;;;;5050747;28;20007;-73
2022/07/21 07:19:41;;;;;;;;;;;21.70;99.90;;;;;;5051662;28;20013;-73
2022/07/21 07:22:06;;;;;;;;;;;21.70;99.90;;;;;;5052681;28;19978;-73
2022/07/21 07:24:32;;;;;;;;;;;21.60;99.90;;;;;;5053846;28;20007;-73
2022/07/21 07:26:57;;;;;;;;;;;21.60;99.90;;;;;;5049382;28;20325;-73
2022/07/21 07:29:23;;;;;;;;;;;21.70;99.90;;;;;;5050297;28;20416;-73
2022/07/21 07:31:48;;;;;;;;;;;21.60;99.90;;;;;;5050512;28;20317;-73
2022/07/21 07:34:14;;;;;;;;;;;21.60;99.90;;;;;;5046179;28;19921;-73
2022/07/21 07:36:39;;;;;;;;;;;21.50;99.90;;;;;;5036310;28;19936;-73
2022/07/21 07:39:05;;;;;;;;;;;21.50;99.90;;;;;;5051129;28;19920;-73
2022/07/21 07:41:31;;;;;;;;;;;21.50;99.90;;;;;;5050722;28;19959;-73
2022/07/21 07:43:58;;;;;;;;;;;21.50;99.90;;;;;;5049373;28;19974;-73
2022/07/21 07:46:23;;;;;;;;;;;21.50;99.90;;;;;;5062086;28;19971;-73
2022/07/21 07:48:49;;;;;;;;;;;21.60;99.90;;;;;;5051005;28;20630;-73
2022/07/21 07:51:14;;;;;;;;;;;21.60;99.90;;;;;;5050687;28;20431;-73
2022/07/21 07:53:40;;;;;;;;;;;21.60;99.90;;;;;;5050918;28;19963;-72
2022/07/21 07:56:06;;;;;;;;;;;21.60;99.90;;;;;;5050449;28;20448;-73
2022/07/21 07:58:32;;;;;;;;;;;21.50;99.90;;;;;;5050762;28;19956;-73
2022/07/21 08:00:57;;;;;;;;;;;21.50;99.90;;;;;;5048932;28;19920;-73
2022/07/21 08:03:23;;;;;;;;;;;21.40;99.90;;;;;;5050419;28;19966;-73
2022/07/21 08:05:49;;;;;;;;;;;21.40;99.90;;;;;;5050046;28;19926;-73
2022/07/21 08:08:15;;;;;;;;;;;21.20;99.90;;;;;;5051043;28;19940;-73
2022/07/21 08:10:41;;;;;;;;;;;21.20;99.90;;;;;;5050576;28;20024;-73
2022/07/21 08:13:08;;;;;;;;;;;21.10;99.90;;;;;;5050244;28;19951;-73
2022/07/21 08:15:34;;;;;;;;;;;21.00;99.90;;;;;;5032757;28;19959;-73
2022/07/21 08:17:59;;;;;;;;;;;20.90;99.90;;;;;;5050165;28;20663;-73
2022/07/21 08:20:25;;;;;;;;;;;20.90;99.90;;;;;;5050351;28;19920;-73
2022/07/21 08:22:50;;;;;;;;;;;20.80;99.90;;;;;;5050396;28;19920;-72
2022/07/21 08:25:16;;;;;;;;;;;20.80;99.90;;;;;;5049245;28;20474;-72
2022/07/21 08:27:44;;;;;;;;;;;20.80;99.90;;;;;;5047385;28;19921;-72
2022/07/21 08:30:10;;;;;;;;;;;20.80;99.90;;;;;;5045388;28;19924;-72
2022/07/21 08:32:36;;;;;;;;;;;20.80;99.90;;;;;;5050301;28;19928;-72
2022/07/21 08:35:01;;;;;;;;;;;20.80;99.90;;;;;;5036708;28;19921;-73
2022/07/21 08:37:27;;;;;;;;;;;20.70;99.90;;;;;;5050340;28;19983;-72
2022/07/21 08:39:52;;;;;;;;;;;20.70;99.90;;;;;;5049314;28;19924;-73
2022/07/21 08:42:18;;;;;;;;;;;20.80;99.90;;;;;;5050178;28;19970;-73
2022/07/21 08:44:43;;;;;;;;;;;20.80;99.90;;;;;;5049865;28;19971;-72
2022/07/21 08:47:09;;;;;;;;;;;20.90;99.90;;;;;;5050322;28;19920;-72
2022/07/21 08:49:34;;;;;;;;;;;21.00;99.90;;;;;;5049471;28;20009;-72
2022/07/21 08:52:00;;;;;;;;;;;21.10;99.90;;;;;;5053521;28;20395;-72
2022/07/21 08:54:26;;;;;;;;;;;21.20;99.90;;;;;;5053611;28;19920;-73
2022/07/21 08:56:51;;;;;;;;;;;21.30;99.90;;;;;;5049840;28;19921;-72
2022/07/21 08:59:17;;;;;;;;;;;21.30;99.90;;;;;;5048824;28;19981;-72
2022/07/21 09:01:42;;;;;;;;;;;21.40;99.90;;;;;;5049574;28;20299;-73
2022/07/21 09:04:26;;;;;;;;;;;21.50;99.90;;;;;;5048801;28;19920;-73
2022/07/21 09:06:53;;;;;;;;;;;21.60;99.90;;;;;;5048277;28;20007;-73
2022/07/21 09:09:22;;;;;;;;;;;21.70;99.90;;;;;;5048920;28;19921;-72
2022/07/21 09:11:49;;;;;;;;;;;21.90;99.90;;;;;;5048508;28;19940;-72
2022/07/21 09:14:18;;;;;;;;;;;22.00;99.90;;;;;;5048812;28;20007;-73
2022/07/21 09:16:48;;;;;;;;;;;22.20;99.90;;;;;;5048205;28;19959;-73
2022/07/21 09:19:18;;;;;;;;;;;22.30;99.90;;;;;;5048413;28;20353;-73
2022/07/21 09:21:43;;;;;;;;;;;22.40;99.90;;;;;;5048576;28;20015;-73
2022/07/21 09:24:13;;;;;;;;;;;22.60;99.90;;;;;;5048305;28;20034;-74
2022/07/21 09:26:56;;;;;;;;;;;22.80;99.90;;;;;;5048182;28;19921;-74
2022/07/21 09:29:21;;;;;;;;;;;23.00;99.90;;;;;;5048766;28;19921;-74
2022/07/21 09:31:47;;;;;;;;;;;23.10;99.90;;;;;;5049355;28;19928;-73
2022/07/21 09:34:12;;;;;;;;;;;23.30;99.90;;;;;;5049242;28;19920;-73
2022/07/21 09:36:38;;;;;;;;;;;23.40;99.90;;;;;;5049616;28;19928;-73
2022/07/21 09:39:03;;;;;;;;;;;23.60;99.90;;;;;;5052239;28;19928;-73
2022/07/21 09:41:30;;;;;;;;;;;23.80;99.90;;;;;;5053383;28;20019;-73
2022/07/21 09:43:56;;;;;;;;;;;24.00;99.90;;;;;;5052986;28;20383;-73
2022/07/21 09:46:27;;;;;;;;;;;24.20;99.90;;;;;;5053068;28;20393;-73
2022/07/21 09:48:53;;;;;;;;;;;24.30;99.90;;;;;;5052980;28;20276;-73
2022/07/21 09:51:29;;;;;;;;;;;24.30;99.90;;;;;;5052842;28;19927;-74
2022/07/21 09:53:56;;;;;;;;;;;24.40;99.90;;;;;;5052555;28;19928;-73
2022/07/21 09:56:22;;;;;;;;;;;24.60;99.90;;;;;;5052596;28;19974;-73
2022/07/21 09:58:49;;;;;;;;;;;24.80;99.90;;;;;;5051360;28;19921;-73
2022/07/21 10:01:15;;;;;;;;;;;25.20;99.90;;;;;;5052700;28;19928;-72
2022/07/21 10:03:44;;;;;;;12.77;8.30;;;25.60;99.90;;;;;;5052334;28;19921;-73
2022/07/21 10:06:10;;;;;;;11.15;7.78;;;26.00;99.90;;;;;;5051936;28;20041;-72
2022/07/21 10:08:37;;;;;;;;;;;26.30;99.90;;;;;;5052532;28;20127;-73
2022/07/21 10:11:02;;;;;;;;;;;26.10;99.90;;;;;;5052381;28;19924;-72
2022/07/21 10:13:28;;;;;;;;;;;25.80;99.90;;;;;;5053037;28;19947;-72
2022/07/21 10:15:54;;;;;;;;;;;25.50;99.90;;;;;;5051337;28;19921;-72
2022/07/21 10:18:20;;;;;;;;;;;25.10;99.90;;;;;;5051382;28;19920;-72
2022/07/21 10:20:48;;;;;;;;;;;24.80;99.90;;;;;;5039597;28;19920;-73
2022/07/21 10:23:43;;;;;;;;;;;24.50;99.90;;;;;;5052737;28;20367;-72
2022/07/21 10:26:09;;;;;;;;;;;24.30;99.90;;;;;;5050656;28;19920;-72
2022/07/21 10:28:35;;;;;;;;;;;24.10;99.90;;;;;;5045484;28;19924;-72
2022/07/21 10:31:13;;;;;;;;;;;24.00;99.90;;;;;;5050811;28;19982;-73
2022/07/21 10:33:44;;;;;;;;;;;24.00;99.90;;;;;;5051527;28;20004;-72
2022/07/21 10:36:10;;;;;;;;;;;24.00;99.90;;;;;;5063190;28;19921;-72
2022/07/21 10:38:36;;;;;;;;;;;24.00;99.90;;;;;;5053870;28;19928;-72
2022/07/21 10:41:03;;;;;;;;;;;24.10;99.90;;;;;;5056860;28;19921;-73
2022/07/21 10:43:29;;;;;;;;;;;24.20;99.90;;;;;;5051743;28;19929;-72
2022/07/21 10:45:55;;;;;;;;;;;24.30;99.90;;;;;;5050938;28;19974;-72
2022/07/21 10:48:36;;;;;;;;;;;24.30;99.90;;;;;;5050905;28;19928;-73
2022/07/21 10:51:02;;;;;;;;;;;24.30;99.90;;;;;;5046668;28;19920;-72
2022/07/21 10:53:28;;;;;;;;;;;24.30;99.90;;;;;;5050737;28;20716;-73
2022/07/21 10:55:54;;;;;;;;;;;24.30;99.90;;;;;;5050115;28;20003;-72
2022/07/21 10:58:20;;;;;;;;;;;24.30;99.90;;;;;;5050233;28;19978;-73
2022/07/21 11:01:02;;;;;;;;;;;24.30;99.90;;;;;;5051022;28;19921;-73
2022/07/21 11:03:30;;;;;;;;;;;24.30;99.90;;;;;;5043936;28;20017;-72
2022/07/21 11:06:14;;;;;;;;;;;24.20;99.90;;;;;;5045507;28;20415;-73
2022/07/21 11:09:03;;;;;;;;;;;24.20;99.90;;;;;;5046345;28;19924;-72
2022/07/21 11:11:30;;;;;;;;;;;24.20;99.90;;;;;;5038628;28;19928;-73
2022/07/21 11:14:09;;;;;;;;;;;24.10;99.90;;;;;;5054392;28;19928;-73
2022/07/21 11:16:41;;;;;;;;;;;24.10;99.90;;;;;;5047500;28;19924;-73
2022/07/21 11:19:25;;;;;;;;;;;24.10;99.90;;;;;;5046658;28;19924;-73
2022/07/21 11:21:50;;;;;;;;;;;24.00;99.90;;;;;;5049903;28;19932;-73
2022/07/21 11:24:20;;;;;;;;;;;24.00;99.90;;;;;;5049590;28;19975;-73
2022/07/21 11:26:53;;;;;;;;;;;24.00;99.90;;;;;;5049995;28;19967;-73
2022/07/21 11:29:18;;;;;;;;;;;24.00;99.90;;;;;;5050255;28;20398;-73
2022/07/21 11:31:47;;;;;;;;;;;23.90;99.90;;;;;;5050368;28;19931;-74
2022/07/21 11:34:13;;;;;;;;;;;23.90;99.90;;;;;;5046115;28;19924;-73
2022/07/21 11:36:38;;;;;;;;;;;23.90;99.90;;;;;;5050140;28;20410;-73
2022/07/21 11:39:05;;;;;;;;;;;23.90;99.90;;;;;;5049572;28;19986;-73
2022/07/21 11:41:32;;;;;;;;;;;23.90;99.90;;;;;;5047651;28;19974;-73
2022/07/21 11:43:57;;;;;;;;;;;23.90;99.90;;;;;;5063874;28;20016;-74
2022/07/21 11:46:23;;;;;;;;;;;23.90;99.90;;;;;;5051281;28;20015;-73
2022/07/21 11:48:59;;;;;;;;;;;23.90;99.90;;;;;;5062492;28;19924;-72
2022/07/21 11:51:25;;;;;;;;;;;23.90;99.90;;;;;;5053477;28;19928;-73
2022/07/21 11:53:50;;;;;;;;;;;24.00;99.90;;;;;;5050632;28;20303;-72
2022/07/21 11:56:16;;;;;;;;;;;24.20;99.90;;;;;;5050879;28;20306;-72
2022/07/21 11:58:42;;;;;;;;;;;24.20;99.90;;;;;;5054068;28;19920;-73
2022/07/21 12:01:08;;;;;;;;;;;24.30;99.90;;;;;;5050546;28;19932;-73
2022/07/21 12:03:33;;;;;;;;;;;24.40;99.90;;;;;;5050988;28;20347;-73
2022/07/21 12:06:00;;;;;;;;;;;24.60;99.90;;;;;;5050160;28;20011;-73
2022/07/21 12:08:25;;;;;;;;;;;24.70;99.90;;;;;;5050534;28;20011;-73
2022/07/21 12:10:51;;;;;;;;;;;24.70;99.90;;;;;;5051122;28;20008;-73
2022/07/21 12:13:16;;;;;;;;;;;24.70;99.90;;;;;;5050927;28;20654;-73
2022/07/21 12:15:42;;;;;;;;;;;24.60;99.90;;;;;;5049150;28;20378;-72
2022/07/21 12:18:16;;;;;;;;;;;24.50;99.90;;;;;;5050477;28;19925;-73
2022/07/21 12:20:43;;;;;;;;;;;24.30;99.90;;;;;;5049813;28;19920;-72
2022/07/21 12:23:21;;;;;;;;;;;24.30;99.90;;;;;;5050179;28;19924;-72
2022/07/21 12:25:47;;;;;;;;;;;24.10;99.90;;;;;;5049663;28;19928;-73
2022/07/21 12:28:13;;;;;;;;;;;23.80;99.90;;;;;;5050539;28;19925;-73
2022/07/21 12:30:39;;;;;;;;;;;23.50;99.90;;;;;;5037011;28;19921;-73
2022/07/21 12:33:09;;;;;;;;;;;23.10;99.90;;;;;;5049820;28;19921;-73
2022/07/21 12:35:36;;;;;;;;;;;22.60;99.90;;;;;;5049856;28;19931;-73
2022/07/21 12:38:01;;;;;;;;;;;22.30;99.90;;;;;;5050004;28;20397;-73
2022/07/21 12:40:29;;;;;;;;;;;22.10;99.90;;;;;;5043177;28;19921;-73
2022/07/21 12:43:25;;;;;;;;;;;22.00;99.90;;;;;;5044354;28;20317;-73
2022/07/21 12:45:58;;;;;;;;;;;21.90;99.90;;;;;;5041051;28;20297;-74
2022/07/21 12:48:23;;;;;;;;;;;21.90;99.90;;;;;;5049819;28;20016;-74
2022/07/21 12:51:04;;;;;;;;;;;21.90;99.90;;;;;;5050068;28;20031;-74
2022/07/21 12:53:30;;;;;;;;;;;21.80;99.90;;;;;;5050124;28;19986;-74
2022/07/21 12:55:56;;;;;;;;;;;21.80;99.90;;;;;;5049413;28;19921;-74
2022/07/21 12:58:22;;;;;;;;;;;21.80;99.90;;;;;;5057653;28;19981;-74
2022/07/21 13:00:47;;;;;;;;;;;21.80;99.90;;;;;;5054786;28;19943;-74
2022/07/21 13:03:13;;;;;;;;;;;21.70;99.90;;;;;;5048947;28;19920;-74
2022/07/21 13:05:39;;;;;;;;;;;21.70;99.90;;;;;;5052539;28;19967;-74
2022/07/21 13:08:04;;;;;;;;;;;21.70;99.90;;;;;;5049479;28;19928;-74
2022/07/21 13:10:30;;;;;;;;;;;21.70;99.90;;;;;;5048948;28;20318;-74
2022/07/21 13:12:56;;;;;;;;;;;21.70;99.90;;;;;;5047835;28;20395;-74
2022/07/21 13:15:21;;;;;;;;;;;21.60;99.90;;;;;;5049274;28;19928;-74
2022/07/21 13:17:47;;;;;;;;;;;21.60;99.90;;;;;;5048519;28;19921;-74
2022/07/21 13:20:12;;;;;;;;;;;21.60;99.90;;;;;;5048127;28;19975;-74
2022/07/21 13:22:38;;;;;;;;;;;21.60;99.90;;;;;;5035645;28;19920;-74
2022/07/21 13:25:04;;;;;;;;;;;21.60;99.90;;;;;;5047995;28;20360;-74
2022/07/21 13:27:30;;;;;;;;;;;21.60;99.90;;;;;;5044096;28;19968;-74
2022/07/21 13:29:56;;;;;;;;;;;21.60;99.90;;;;;;5049938;28;19971;-75
2022/07/21 13:32:21;;;;;;;;;;;21.70;99.90;;;;;;5045645;28;19924;-75
2022/07/21 13:34:47;;;;;;;;;;;21.90;99.90;;;;;;5049502;28;19924;-75
2022/07/21 13:37:12;;;;;;;;;;;22.00;99.90;;;;;;5047574;28;19921;-74
2022/07/21 13:39:38;;;;;;;;;;;22.10;99.90;;;;;;5047918;28;20020;-74
2022/07/21 13:42:05;;;;;;;;;;;22.20;99.90;;;;;;5047985;28;19925;-74
2022/07/21 13:44:31;;;;;;;;;;;22.20;99.90;;;;;;5048192;28;19966;-74
2022/07/21 13:46:57;;;;;;;;;;;22.20;99.90;;;;;;5046868;28;19921;-74
2022/07/21 13:49:23;;;;;;;;;;;22.10;99.90;;;;;;5050558;28;19961;-74
2022/07/21 13:51:48;;;;;;;;;;;22.00;99.90;;;;;;5047908;28;19947;-75
2022/07/21 13:54:14;;;;;;;;;;;21.90;99.90;;;;;;5063532;28;19920;-74
2022/07/21 13:56:39;;;;;;;;;;;21.70;99.90;;;;;;5050223;28;19977;-75
2022/07/21 13:59:05;;;;;;;;;;;21.60;99.90;;;;;;5052720;28;19925;-74
2022/07/21 14:01:30;;;;;;;;;;;21.60;99.90;;;;;;5057847;28;20288;-75
2022/07/21 14:03:56;;;;;;;;;;;21.50;99.90;;;;;;5048169;28;19920;-75
2022/07/21 14:06:21;;;;;;;;;;;21.50;99.90;;;;;;5045730;28;19928;-75
2022/07/21 14:08:47;;;;;;;;;;;21.60;99.90;;;;;;5048243;28;20422;-75
2022/07/21 14:11:13;;;;;;;;;;;21.50;99.90;;;;;;5048425;28;19924;-75
2022/07/21 14:13:39;;;;;;;;;;;21.50;99.90;;;;;;5045656;28;19931;-74
2022/07/21 14:16:05;;;;;;;;;;;21.50;99.90;;;;;;5046782;28;19924;-74